Time;durP1;ratioP1;P1;durP2;ratioP2;P2;SDS_P1;SDS_P2;PMS_P1;PMS_P2;Temp;Humidity;BMP_temperature;BMP_pressure;BME280_temperature;BME280_humidity;BME280_pressure;Samples;Min_cycle;Max_cycle;Signal;HPM_P1;HPM_P2
2021/12/02 00:00:36;;;;;;;;;1.00;1.00;;;;;21.39;36.43;99811.56;5099869;27;45240;-56
2021/12/02 00:03:04;;;;;;;;;1.25;1.25;;;;;21.37;36.49;99809.06;5100270;27;45546;-54
2021/12/02 00:05:30;;;;;;;;;1.00;0.50;;;;;21.36;36.67;99811.78;5099465;27;45453;-56
2021/12/02 00:07:55;;;;;;;;;2.75;2.00;;;;;21.34;36.57;99811.91;5099529;27;46015;-56
2021/12/02 00:10:26;;;;;;;;;1.50;1.50;;;;;21.33;36.58;99817.31;5099787;27;45327;-57
2021/12/02 00:12:54;;;;;;;;;1.00;1.00;;;;;21.29;36.55;99807.00;5099474;27;45166;-54
2021/12/02 00:15:23;;;;;;;;;1.75;1.75;;;;;21.31;36.78;99814.78;5099137;27;45414;-58
2021/12/02 00:17:55;;;;;;;;;3.00;2.00;;;;;21.28;36.43;99810.59;5099295;27;45708;-55
2021/12/02 00:23:13;;;;;;;;;2.00;2.00;;;;;21.27;36.21;99813.34;5099922;27;45376;-55
2021/12/02 00:25:38;;;;;;;;;1.00;1.00;;;;;21.25;36.36;99818.72;5079714;27;47170;-56
2021/12/02 00:28:05;;;;;;;;;1.00;1.00;;;;;21.20;36.37;99815.59;5081134;27;45317;-55
2021/12/02 00:30:32;;;;;;;;;1.00;1.00;;;;;21.23;36.50;99827.69;5099389;27;45361;-57
2021/12/02 00:32:59;;;;;;;;;2.00;1.00;;;;;21.25;36.69;99831.88;5099449;27;45753;-56
2021/12/02 00:35:25;;;;;;;;;2.00;1.25;;;;;21.26;36.90;99830.94;5098814;27;45705;-56
2021/12/02 00:37:50;;;;;;;;;1.00;1.00;;;;;21.29;36.76;99832.50;5098879;27;45387;-55
2021/12/02 00:40:16;;;;;;;;;1.00;1.00;;;;;21.32;36.59;99837.53;5099196;27;45307;-60
2021/12/02 00:42:42;;;;;;;;;1.50;1.50;;;;;21.35;36.48;99836.47;5099167;27;45600;-55
2021/12/02 00:45:08;;;;;;;;;2.00;0.75;;;;;21.38;36.57;99839.75;5099209;27;46154;-52
2021/12/02 00:47:36;;;;;;;;;2.50;1.00;;;;;21.41;36.69;99847.41;5099103;27;45493;-55
2021/12/02 00:50:02;;;;;;;;;1.00;1.00;;;;;21.45;36.79;99840.09;5098992;27;45493;-52
2021/12/02 00:52:29;;;;;;;;;1.25;1.25;;;;;21.47;36.64;99835.53;5099033;27;45587;-57
2021/12/02 00:54:55;;;;;;;;;2.00;2.00;;;;;21.52;36.44;99840.47;5080192;27;47601;-55
2021/12/02 00:57:21;;;;;;;;;4.00;1.25;;;;;21.53;36.65;99840.38;5098556;27;45328;-55
2021/12/02 00:59:48;;;;;;;;;1.00;1.00;;;;;21.57;36.66;99844.44;5098842;27;45410;-56
2021/12/02 01:02:13;;;;;;;;;1.00;1.00;;;;;21.61;36.52;99842.44;5080535;27;45425;-52
2021/12/02 01:04:39;;;;;;;;;2.00;2.00;;;;;21.62;36.57;99844.97;5098606;27;45461;-53
2021/12/02 01:07:05;;;;;;;;;1.00;1.00;;;;;21.66;36.29;99856.13;5098777;27;45323;-54
2021/12/02 01:09:30;;;;;;;;;1.00;1.00;;;;;21.68;36.52;99853.38;5098703;27;45300;-57
2021/12/02 01:11:56;;;;;;;;;1.00;1.00;;;;;21.69;36.46;99855.06;5098836;27;45344;-58
2021/12/02 01:14:22;;;;;;;;;2.00;2.00;;;;;21.72;36.43;99865.38;5098437;27;46390;-55
2021/12/02 01:16:48;;;;;;;;;1.00;1.00;;;;;21.75;36.45;99865.97;5098477;27;45278;-54
2021/12/02 01:19:13;;;;;;;;;1.50;1.00;;;;;21.77;36.40;99865.88;5098352;27;45502;-56
2021/12/02 01:21:42;;;;;;;;;1.00;1.00;;;;;21.77;36.17;99860.59;5098900;27;45533;-55
2021/12/02 01:24:12;;;;;;;;;2.00;0.00;;;;;21.80;36.34;99867.44;5080310;27;46748;-56
2021/12/02 01:26:38;;;;;;;;;1.00;1.00;;;;;21.81;36.13;99875.22;5098536;27;45717;-54
2021/12/02 01:29:04;;;;;;;;;0.50;0.50;;;;;21.82;36.16;99869.00;5098273;27;45260;-54
2021/12/02 01:31:36;;;;;;;;;1.50;1.50;;;;;21.84;36.17;99871.50;5098368;27;45393;-57
2021/12/02 01:34:07;;;;;;;;;1.00;1.00;;;;;21.84;35.96;99869.72;5098170;27;46496;-56
2021/12/02 01:36:41;;;;;;;;;0.75;0.25;;;;;21.85;36.05;99881.09;5097358;27;45673;-55
2021/12/02 01:39:08;;;;;;;;;0.75;0.75;;;;;21.83;36.09;99873.31;5079955;27;45300;-55
2021/12/02 01:41:37;;;;;;;;;0.75;0.50;;;;;21.85;36.29;99881.97;5098304;27;45560;-56
2021/12/02 01:44:10;;;;;;;;;1.25;1.00;;;;;21.84;36.47;99880.28;5097661;27;45549;-57
2021/12/02 01:46:38;;;;;;;;;1.75;1.75;;;;;21.85;36.36;99889.88;5097705;27;45900;-57
2021/12/02 01:49:04;;;;;;;;;0.75;0.75;;;;;21.84;36.24;99901.38;5097870;27;45480;-58
2021/12/02 01:51:36;;;;;;;;;1.50;1.00;;;;;21.84;35.99;99903.16;5098038;27;45287;-59
2021/12/02 01:54:25;;;;;;;;;1.25;1.25;;;;;21.84;36.41;99911.06;5097874;27;46595;-53
2021/12/02 01:57:15;;;;;;;;;3.75;0.50;;;;;21.81;36.24;99904.22;5097787;27;45239;-54
2021/12/02 01:59:47;;;;;;;;;1.00;1.00;;;;;21.81;36.16;99906.88;5083207;27;45489;-53
2021/12/02 02:02:18;;;;;;;;;1.75;1.75;;;;;21.81;36.29;99916.59;5098142;27;45331;-55
2021/12/02 02:04:45;;;;;;;;;1.25;1.00;;;;;21.80;36.10;99914.91;5097636;27;46204;-56
2021/12/02 02:07:13;;;;;;;;;2.00;0.50;;;;;21.79;36.40;99919.31;5097731;27;45359;-53
2021/12/02 02:09:39;;;;;;;;;0.25;0.25;;;;;21.77;36.46;99921.25;5098128;27;45374;-56
2021/12/02 02:12:07;;;;;;;;;1.00;0.00;;;;;21.77;36.46;99929.19;5097976;27;45616;-53
2021/12/02 02:14:33;;;;;;;;;3.25;1.50;;;;;21.74;36.53;99921.50;5097505;27;47060;-53
2021/12/02 02:17:03;;;;;;;;;1.00;1.00;;;;;21.73;36.50;99935.63;5097479;27;45235;-55
2021/12/02 02:19:31;;;;;;;;;1.00;1.00;;;;;21.72;36.07;99939.22;5097465;27;45552;-55
2021/12/02 02:21:56;;;;;;;;;2.00;1.25;;;;;21.71;36.51;99943.66;5097570;27;45359;-58
2021/12/02 02:24:22;;;;;;;;;1.00;1.00;;;;;21.70;36.29;99941.97;5078736;27;45977;-55
2021/12/02 02:26:48;;;;;;;;;1.00;1.00;;;;;21.69;36.25;99950.00;5097345;27;45387;-55
2021/12/02 02:29:14;;;;;;;;;1.25;1.25;;;;;21.66;36.46;99947.59;5097438;27;45295;-56
2021/12/02 02:31:42;;;;;;;;;1.00;1.00;;;;;21.66;36.37;99955.50;5097741;27;45636;-56
2021/12/02 02:34:08;;;;;;;;;1.75;1.75;;;;;21.65;36.50;99959.09;5097409;27;45585;-53
2021/12/02 02:36:40;;;;;;;;;0.00;0.00;;;;;21.62;36.42;99955.72;5097252;27;45692;-53
2021/12/02 02:39:06;;;;;;;;;1.00;1.00;;;;;21.61;36.21;99961.09;5097095;27;45230;-57
2021/12/02 02:41:37;;;;;;;;;1.00;0.75;;;;;21.60;36.40;99962.91;5079019;27;45541;-53
2021/12/02 02:44:04;;;;;;;;;2.00;1.25;;;;;21.55;36.29;99954.44;5097016;27;45422;-53
2021/12/02 02:46:32;;;;;;;;;1.00;1.00;;;;;21.58;36.30;99964.78;5095200;27;45530;-54
2021/12/02 02:49:01;;;;;;;;;1.00;1.00;;;;;21.56;36.43;99971.13;5078290;27;45339;-56
2021/12/02 02:51:30;;;;;;;;;1.00;1.00;;;;;21.57;36.56;99973.63;5097127;27;45538;-54
2021/12/02 02:53:57;;;;;;;;;1.50;1.50;;;;;21.55;36.29;99964.16;5096722;27;46196;-53
2021/12/02 02:56:27;;;;;;;;;1.00;1.00;;;;;21.56;36.23;99977.22;5096810;27;45630;-54
2021/12/02 02:59:08;;;;;;;;;2.00;2.00;;;;;21.55;36.15;99974.72;5095520;27;45370;-54
2021/12/02 03:02:24;;;;;;;;;0.50;0.50;;;;;21.53;36.50;99973.97;5096935;27;45965;-56
2021/12/02 03:04:28;;;;;;;;;0.50;0.50;;;;;21.53;36.49;99974.84;5085615;27;45621;-56
2021/12/02 03:17:11;;;;;;;;;1.00;1.00;;;;;21.45;36.02;99985.94;5096883;27;45691;-56
2021/12/02 03:19:42;;;;;;;;;2.00;1.00;;;;;21.46;36.10;99992.03;5095586;27;45370;-53
2021/12/02 03:22:08;;;;;;;;;0.00;0.00;;;;;21.47;36.55;99996.34;5096946;27;45605;-51
2021/12/02 03:24:34;;;;;;;;;0.00;0.00;;;;;21.49;36.46;99991.00;5096537;27;45714;-55
2021/12/02 03:26:59;;;;;;;;;1.00;1.00;;;;;21.49;36.14;100002.38;5096373;27;45337;-53
2021/12/02 03:29:25;;;;;;;;;2.00;1.00;;;;;21.51;36.52;100003.09;5078307;27;45284;-56
2021/12/02 03:31:50;;;;;;;;;1.00;1.00;;;;;21.54;36.18;100012.56;5078557;27;45185;-54
2021/12/02 03:34:16;;;;;;;;;2.00;0.50;;;;;21.59;36.20;100006.03;5096669;27;46600;-54
2021/12/02 03:36:42;;;;;;;;;0.75;0.75;;;;;21.62;36.11;100007.59;5096861;27;45216;-59
2021/12/02 03:39:09;;;;;;;;;1.00;1.00;;;;;21.65;35.91;100007.41;5078107;27;45390;-56
2021/12/02 03:41:35;;;;;;;;;1.25;1.00;;;;;21.69;36.19;100015.91;5096669;27;45252;-57
2021/12/02 03:44:01;;;;;;;;;0.50;0.50;;;;;21.71;36.17;100014.00;5077977;27;45559;-56
2021/12/02 03:46:28;;;;;;;;;2.00;1.00;;;;;21.73;36.30;100015.56;5096362;27;45325;-54
2021/12/02 03:48:55;;;;;;;;;0.00;0.00;;;;;21.74;36.00;100009.34;5096444;27;45314;-52
2021/12/02 03:51:21;;;;;;;;;1.25;0.75;;;;;21.77;35.91;100014.41;5096470;27;45605;-55
2021/12/02 03:53:47;;;;;;;;;0.00;0.00;;;;;21.80;36.04;100015.13;5096455;27;46951;-53
2021/12/02 03:56:13;;;;;;;;;0.00;0.00;;;;;21.82;35.87;100024.63;5096492;27;45217;-54
2021/12/02 03:58:40;;;;;;;;;1.00;1.00;;;;;21.86;36.20;100033.13;5097156;27;45434;-53
2021/12/02 04:01:07;;;;;;;;;0.00;0.00;;;;;21.87;35.87;100040.97;5099941;27;45428;-57
2021/12/02 04:03:33;;;;;;;;;1.50;1.00;;;;;21.87;35.75;100035.69;5099476;27;45640;-57
2021/12/02 04:06:00;;;;;;;;;2.00;0.00;;;;;21.92;35.96;100043.25;5099301;27;45685;-54
2021/12/02 04:08:40;;;;;;;;;0.00;0.00;;;;;21.92;36.04;100048.53;5099699;27;45473;-56
2021/12/02 04:13:44;;;;;;;;;0.75;0.75;;;;;21.96;35.61;100030.69;5099607;27;45904;-55
2021/12/02 04:16:15;;;;;;;;;0.00;0.00;;;;;21.99;35.77;100038.38;5099319;27;45248;-55
2021/12/02 04:18:41;;;;;;;;;0.25;0.25;;;;;21.98;35.45;100034.88;5080875;27;45868;-55
2021/12/02 04:21:06;;;;;;;;;0.75;0.00;;;;;22.01;35.79;100039.06;5099487;27;45410;-53
2021/12/02 04:23:31;;;;;;;;;0.75;0.75;;;;;22.02;35.79;100040.75;5099136;27;45334;-55
2021/12/02 04:25:57;;;;;;;;;0.00;0.00;;;;;22.04;35.58;100045.00;5099136;27;45363;-56
2021/12/02 04:28:22;;;;;;;;;1.00;1.00;;;;;22.03;35.42;100045.94;5099306;27;45310;-54
2021/12/02 04:30:47;;;;;;;;;0.50;0.50;;;;;22.04;35.69;100047.63;5099843;27;45248;-55
2021/12/02 04:33:13;;;;;;;;;0.00;0.00;;;;;22.04;35.62;100055.53;5099084;27;46680;-56
2021/12/02 04:35:38;;;;;;;;;0.50;0.25;;;;;22.06;35.42;100061.53;5099193;27;45299;-57
2021/12/02 04:38:04;;;;;;;;;0.00;0.00;;;;;22.05;35.60;100070.41;5080881;27;45568;-57
2021/12/02 04:40:29;;;;;;;;;0.00;0.00;;;;;22.06;35.27;100073.88;5099477;27;45691;-57
2021/12/02 04:42:55;;;;;;;;;1.50;0.00;;;;;22.05;35.60;100073.03;5098936;27;46259;-53
2021/12/02 04:45:20;;;;;;;;;0.00;0.00;;;;;22.05;35.35;100080.13;5098848;27;45367;-56
2021/12/02 04:47:45;;;;;;;;;0.00;0.00;;;;;22.04;35.29;100081.06;5099389;27;45235;-58
2021/12/02 04:50:11;;;;;;;;;0.00;0.00;;;;;22.04;35.12;100086.34;5099386;27;45223;-54
2021/12/02 04:52:37;;;;;;;;;0.50;0.00;;;;;22.03;35.02;100089.94;5080523;27;48150;-59
2021/12/02 04:55:04;;;;;;;;;0.00;0.00;;;;;22.00;35.31;100092.78;5098913;27;45645;-57
2021/12/02 04:57:30;;;;;;;;;1.00;1.00;;;;;22.02;35.35;100096.16;5098945;27;45415;-58
2021/12/02 04:59:55;;;;;;;;;0.00;0.00;;;;;22.01;35.14;100097.13;5080707;27;45549;-57
2021/12/02 05:02:20;;;;;;;;;0.00;0.00;;;;;22.00;35.50;100100.72;5098684;27;46592;-55
2021/12/02 05:04:46;;;;;;;;;0.00;0.00;;;;;21.98;35.33;100107.94;5099010;27;45366;-58
2021/12/02 05:07:11;;;;;;;;;2.00;0.00;;;;;21.98;34.81;100110.56;5098590;27;45349;-59
2021/12/02 05:09:36;;;;;;;;;0.25;0.25;;;;;21.95;35.41;100108.13;5080144;27;45592;-56
2021/12/02 05:12:02;;;;;;;;;0.00;0.00;;;;;21.95;35.04;100108.13;5097935;27;45356;-57
2021/12/02 05:14:27;;;;;;;;;1.00;1.00;;;;;21.91;35.24;100113.63;5098385;27;45286;-60
2021/12/02 05:16:53;;;;;;;;;2.00;0.25;;;;;21.90;34.96;100117.22;5098530;27;45363;-54
2021/12/02 05:19:20;;;;;;;;;1.00;1.00;;;;;21.90;35.14;100111.94;5080461;27;45541;-59
2021/12/02 05:21:46;;;;;;;;;1.00;1.00;;;;;21.88;34.96;100108.56;5098570;27;45502;-57
2021/12/02 05:24:11;;;;;;;;;1.00;0.25;;;;;21.88;35.10;100113.84;5098248;27;45307;-57
2021/12/02 05:26:37;;;;;;;;;0.00;0.00;;;;;21.85;35.24;100108.81;5079686;27;45264;-59
2021/12/02 05:29:02;;;;;;;;;0.50;0.00;;;;;21.85;34.90;100118.50;5098358;27;45575;-58
2021/12/02 05:31:28;;;;;;;;;0.00;0.00;;;;;21.84;34.84;100122.09;5098084;27;46544;-57
2021/12/02 05:33:53;;;;;;;;;1.00;1.00;;;;;21.82;35.02;100130.13;5098035;27;45452;-56
2021/12/02 05:36:19;;;;;;;;;0.00;0.00;;;;;21.81;35.03;100131.09;5080155;27;45351;-56
2021/12/02 05:38:44;;;;;;;;;0.75;0.75;;;;;21.79;34.95;100132.97;5098144;27;45525;-55
2021/12/02 05:41:13;;;;;;;;;1.00;1.00;;;;;21.78;34.71;100133.94;5097751;27;46258;-60
2021/12/02 05:43:39;;;;;;;;;1.00;1.00;;;;;21.72;34.73;100129.09;5097886;27;45622;-59
2021/12/02 05:46:05;;;;;;;;;0.00;0.00;;;;;21.73;34.70;100131.63;5098075;27;45284;-54
2021/12/02 05:48:30;;;;;;;;;2.00;0.75;;;;;21.74;34.85;100132.47;5098172;27;45344;-59
2021/12/02 05:50:56;;;;;;;;;0.00;0.00;;;;;21.72;34.79;100123.84;5097824;27;45342;-57
2021/12/02 05:53:21;;;;;;;;;1.25;0.00;;;;;21.74;34.59;100128.03;5098183;27;45388;-55
2021/12/02 05:55:46;;;;;;;;;0.50;0.00;;;;;21.77;34.58;100137.53;5097889;27;45214;-55
2021/12/02 05:58:13;;;;;;;;;1.00;1.00;;;;;21.79;34.34;100127.69;5097809;27;45219;-57
2021/12/02 06:00:39;;;;;;;;;1.25;0.00;;;;;21.82;34.39;100130.13;5097479;27;45531;-58
2021/12/02 06:03:04;;;;;;;;;1.00;0.00;;;;;21.84;34.66;100127.38;5097700;27;45411;-57
2021/12/02 06:05:30;;;;;;;;;0.75;0.75;;;;;21.87;34.32;100135.06;5097707;27;45359;-55
2021/12/02 06:08:00;;;;;;;;;1.00;1.00;;;;;21.91;34.17;100140.00;5079453;27;45360;-53
2021/12/02 06:10:26;;;;;;;;;0.75;0.75;;;;;21.95;34.38;100145.06;5097415;27;47298;-57
2021/12/02 06:12:51;;;;;;;;;0.75;0.75;;;;;21.98;34.37;100150.13;5097741;27;45359;-58
2021/12/02 06:15:18;;;;;;;;;1.00;1.00;;;;;21.99;34.27;100157.09;5097597;27;45281;-61
2021/12/02 06:17:43;;;;;;;;;2.00;1.00;;;;;22.02;34.42;100156.84;5097907;27;46004;-61
2021/12/02 06:20:10;;;;;;;;;1.00;1.00;;;;;22.05;33.91;100156.66;5097900;27;45834;-61
2021/12/02 06:22:36;;;;;;;;;1.50;1.00;;;;;22.05;34.12;100154.00;5097179;27;45788;-60
2021/12/02 06:27:31;;;;;;;;;0.00;0.00;;;;;22.05;34.32;100154.84;5097651;27;45580;-58
2021/12/02 06:29:57;;;;;;;;;1.00;1.00;;;;;22.06;34.20;100158.34;5078922;27;46905;-61
2021/12/02 06:32:22;;;;;;;;;0.00;0.00;;;;;22.06;34.19;100159.16;5097486;27;45220;-60
2021/12/02 06:34:48;;;;;;;;;2.00;1.00;;;;;22.05;33.98;100156.66;5097323;27;45362;-61
2021/12/02 06:37:13;;;;;;;;;1.00;1.00;;;;;22.05;34.38;100152.19;5097590;27;45480;-61
2021/12/02 06:39:38;;;;;;;;;1.00;0.75;;;;;22.06;34.37;100147.78;5097087;27;45496;-61
2021/12/02 06:42:04;;;;;;;;;0.00;0.00;;;;;22.06;34.10;100158.34;5078730;27;45522;-61
2021/12/02 06:44:29;;;;;;;;;0.00;0.00;;;;;22.05;34.47;100173.31;5097378;27;45330;-60
2021/12/02 06:46:56;;;;;;;;;0.00;0.00;;;;;22.04;34.21;100168.16;5097687;27;45313;-60
2021/12/02 06:49:21;;;;;;;;;1.00;1.00;;;;;22.03;34.18;100166.47;5097262;27;46479;-59
2021/12/02 06:51:46;;;;;;;;;1.00;0.75;;;;;22.03;34.34;100180.50;5097081;27;45335;-60
2021/12/02 06:54:12;;;;;;;;;1.00;1.00;;;;;22.02;34.22;100178.84;5097187;27;45510;-60
2021/12/02 06:56:37;;;;;;;;;1.75;0.00;;;;;22.00;34.41;100191.28;5097360;27;45258;-59
2021/12/02 06:59:02;;;;;;;;;0.50;0.00;;;;;22.00;34.33;100195.69;5096903;27;46607;-56
2021/12/02 07:01:28;;;;;;;;;3.00;0.00;;;;;21.96;34.24;100199.53;5078619;27;45986;-60
2021/12/02 07:03:53;;;;;;;;;0.00;0.00;;;;;21.96;34.11;100204.81;5097304;27;45318;-60
2021/12/02 07:06:19;;;;;;;;;0.00;0.00;;;;;21.93;34.30;100214.63;5097053;27;45184;-61
2021/12/02 07:08:44;;;;;;;;;1.00;1.00;;;;;21.91;34.23;100218.34;5096732;27;45554;-58
2021/12/02 07:11:10;;;;;;;;;1.75;0.75;;;;;21.89;34.08;100228.97;5096698;27;45344;-60
2021/12/02 07:13:37;;;;;;;;;3.00;0.50;;;;;21.91;34.43;100239.44;5096759;27;45389;-59
2021/12/02 07:16:03;;;;;;;;;0.75;0.75;;;;;21.90;34.01;100240.38;5096924;27;45475;-59
2021/12/02 07:18:34;;;;;;;;;1.00;0.50;;;;;21.87;34.12;100237.97;5096350;27;45492;-55
2021/12/02 07:21:00;;;;;;;;;0.75;0.25;;;;;21.86;33.89;100242.41;5096593;27;45338;-57
2021/12/02 07:23:25;;;;;;;;;0.25;0.25;;;;;21.83;33.75;100239.97;5097248;27;45315;-60
2021/12/02 07:25:51;;;;;;;;;0.00;0.00;;;;;21.81;33.92;100244.50;5096963;27;45227;-64
2021/12/02 07:28:17;;;;;;;;;0.00;0.00;;;;;21.81;34.17;100244.50;5078104;27;47042;-56
2021/12/02 07:30:44;;;;;;;;;0.50;0.50;;;;;21.79;33.70;100249.03;5096527;27;45311;-56
2021/12/02 07:33:11;;;;;;;;;0.00;0.00;;;;;21.78;33.75;100253.50;5096634;27;45395;-59
2021/12/02 07:35:37;;;;;;;;;0.25;0.00;;;;;21.77;34.05;100253.59;5100313;27;45457;-55
2021/12/02 07:38:04;;;;;;;;;0.00;0.00;;;;;21.76;33.97;100259.81;5099892;27;45641;-59
2021/12/02 07:40:36;;;;;;;;;1.00;1.00;;;;;21.75;33.75;100271.31;5099708;27;45692;-61
2021/12/02 07:43:03;;;;;;;;;0.50;0.50;;;;;21.72;33.73;100255.72;5099940;27;45349;-57
2021/12/02 07:45:35;;;;;;;;;3.00;1.00;;;;;21.72;34.00;100250.44;5100112;27;45684;-58
2021/12/02 07:48:03;;;;;;;;;1.00;1.00;;;;;21.72;34.04;100260.97;5099782;27;46521;-55
2021/12/02 07:50:28;;;;;;;;;1.00;1.00;;;;;21.70;33.97;100245.28;5099900;27;45408;-58
2021/12/02 07:52:58;;;;;;;;;1.00;0.00;;;;;21.69;33.64;100251.50;5100101;27;45376;-59
2021/12/02 07:55:24;;;;;;;;;2.50;2.00;;;;;21.67;33.77;100257.81;5100469;27;45517;-55
2021/12/02 07:57:51;;;;;;;;;1.75;1.75;;;;;21.62;33.24;100260.75;5099670;27;46522;-55
2021/12/02 08:00:19;;;;;;;;;0.00;0.00;;;;;21.59;33.47;100261.81;5099613;27;45286;-55
2021/12/02 08:02:47;;;;;;;;;2.25;2.25;;;;;21.55;33.51;100265.59;5099625;27;45401;-57
2021/12/02 08:05:13;;;;;;;;;1.00;1.00;;;;;21.54;33.69;100271.84;5081392;27;45538;-56
2021/12/02 08:07:40;;;;;;;;;1.50;1.00;;;;;21.52;33.56;100271.09;5080761;27;48273;-56
2021/12/02 08:10:10;;;;;;;;;4.00;1.75;;;;;21.52;33.28;100271.09;5099461;27;45805;-58
2021/12/02 08:12:36;;;;;;;;;3.00;1.00;;;;;21.49;33.72;100273.94;5099723;27;45307;-57
2021/12/02 08:15:07;;;;;;;;;2.00;2.00;;;;;21.48;33.73;100282.78;5099561;27;45359;-61
2021/12/02 08:17:33;;;;;;;;;1.75;1.00;;;;;21.49;33.85;100295.03;5099202;27;46319;-54
2021/12/02 08:19:58;;;;;;;;;1.00;1.00;;;;;21.47;33.82;100300.41;5099571;27;45805;-58
2021/12/02 08:22:23;;;;;;;;;2.50;1.00;;;;;21.44;33.47;100289.22;5099342;27;45274;-56
2021/12/02 08:24:50;;;;;;;;;1.50;1.50;;;;;21.42;33.56;100294.59;5099593;27;45212;-54
2021/12/02 08:27:15;;;;;;;;;0.25;0.25;;;;;21.43;34.10;100303.34;5099127;27;46915;-58
2021/12/02 08:29:42;;;;;;;;;2.00;1.00;;;;;21.41;34.07;100299.97;5099347;27;45450;-63
2021/12/02 08:32:07;;;;;;;;;0.50;0.25;;;;;21.40;34.07;100298.28;5080868;27;45369;-57
2021/12/02 08:34:33;;;;;;;;;1.50;1.00;;;;;21.39;34.19;100307.13;5081021;27;45354;-58
2021/12/02 08:36:58;;;;;;;;;1.00;1.00;;;;;21.36;34.23;100307.34;5081017;27;46312;-57
2021/12/02 08:39:27;;;;;;;;;1.50;1.50;;;;;21.36;34.20;100308.19;5098911;27;45445;-56
2021/12/02 08:41:54;;;;;;;;;0.00;0.00;;;;;21.36;34.33;100307.34;5099270;27;45413;-58
2021/12/02 08:44:22;;;;;;;;;2.75;1.00;;;;;21.33;34.36;100310.19;5097929;27;45674;-66
2021/12/02 08:46:50;;;;;;;;;1.00;1.00;;;;;21.34;34.15;100319.78;5097126;27;45277;-65
2021/12/02 08:49:16;;;;;;;;;1.00;1.00;;;;;21.33;34.30;100326.03;5098824;27;45537;-60
2021/12/02 08:51:44;;;;;;;;;1.25;0.00;;;;;21.30;34.35;100317.38;5080657;27;45425;-59
2021/12/02 08:54:10;;;;;;;;;1.75;0.00;;;;;21.29;34.04;100322.72;5099080;27;45561;-57
2021/12/02 08:56:35;;;;;;;;;1.00;1.00;;;;;21.28;34.34;100313.13;5098749;27;45657;-54
2021/12/02 08:59:01;;;;;;;;;2.00;0.75;;;;;21.26;34.04;100318.50;5098966;27;45287;-55
2021/12/02 09:01:28;;;;;;;;;1.50;0.50;;;;;21.24;34.34;100320.38;5098961;27;45296;-58
2021/12/02 09:03:55;;;;;;;;;4.00;1.00;;;;;21.21;34.29;100328.53;5100763;27;45572;-55
2021/12/02 09:06:22;;;;;;;;;1.50;1.50;;;;;21.21;34.07;100333.78;5098223;27;46361;-52
2021/12/02 09:08:48;;;;;;;;;1.00;0.00;;;;;21.22;34.61;100332.81;5098545;27;45872;-52
2021/12/02 09:11:14;;;;;;;;;2.00;0.00;;;;;21.20;34.23;100337.38;5080273;27;45315;-55
2021/12/02 09:13:39;;;;;;;;;1.75;1.00;;;;;21.19;34.55;100348.84;5098630;27;45288;-51
2021/12/02 09:16:05;;;;;;;;;0.00;0.00;;;;;21.18;34.49;100352.44;5098429;27;46771;-52
2021/12/02 09:18:30;;;;;;;;;0.75;0.75;;;;;21.18;34.25;100352.44;5098584;27;45244;-56
2021/12/02 09:20:57;;;;;;;;;4.00;1.00;;;;;21.19;34.38;100353.25;5098550;27;45260;-55
2021/12/02 09:23:22;;;;;;;;;0.00;0.00;;;;;21.16;34.43;100355.19;5098735;27;45463;-56
2021/12/02 09:25:48;;;;;;;;;0.25;0.25;;;;;21.15;33.78;100365.81;5098289;27;46076;-53
2021/12/02 09:28:15;;;;;;;;;2.25;0.00;;;;;21.13;33.81;100362.41;5098205;27;45376;-51
2021/12/02 09:30:40;;;;;;;;;1.00;0.00;;;;;21.14;33.97;100366.75;5098282;27;45390;-57
2021/12/02 09:33:06;;;;;;;;;1.00;1.00;;;;;21.11;34.22;100361.69;5098518;27;45430;-53
2021/12/02 09:35:31;;;;;;;;;1.50;0.00;;;;;21.10;34.45;100368.75;5080057;27;46049;-51
2021/12/02 09:37:57;;;;;;;;;0.00;0.00;;;;;21.10;34.21;100365.28;5098049;27;45325;-50
2021/12/02 09:40:22;;;;;;;;;0.00;0.00;;;;;21.10;34.00;100373.19;5098217;27;45387;-53
2021/12/02 09:42:48;;;;;;;;;1.00;0.00;;;;;21.07;33.71;100366.28;5098447;27;45303;-50
2021/12/02 09:45:15;;;;;;;;;0.25;0.25;;;;;21.08;34.01;100373.25;5098091;27;45576;-51
2021/12/02 09:47:44;;;;;;;;;1.25;1.25;;;;;21.08;34.10;100385.59;5097402;27;45687;-53
2021/12/02 09:50:37;;;;;;;;;1.00;1.00;;;;;21.06;33.73;100388.31;5079766;27;45317;-55
2021/12/02 09:53:09;;;;;;;;;1.75;1.25;;;;;21.04;34.24;100382.31;5098546;27;45430;-54
2021/12/02 09:58:22;;;;;;;;;1.25;0.50;;;;;21.03;33.75;100383.28;5097478;27;45252;-57
2021/12/02 10:00:52;;;;;;;;;0.50;0.50;;;;;20.99;33.70;100390.53;5098005;27;45190;-54
2021/12/02 10:03:35;;;;;;;;;0.50;0.50;;;;;21.01;34.06;100399.16;5097975;27;45770;-53
2021/12/02 10:06:07;;;;;;;;;0.50;0.50;;;;;21.01;34.15;100399.16;5079491;27;48113;-53
2021/12/02 10:08:52;;;;;;;;;2.00;1.00;;;;;20.99;34.04;100395.81;5096434;27;45364;-54
2021/12/02 10:11:50;;;;;;;;;1.25;1.00;;;;;20.99;33.72;100406.34;5097811;27;45326;-55
2021/12/02 10:14:23;;;;;;;;;2.00;0.75;;;;;20.98;34.21;100396.75;5097895;27;45416;-55
2021/12/02 10:16:52;;;;;;;;;1.00;1.00;;;;;20.97;34.20;100397.69;5097532;27;46439;-58
2021/12/02 10:19:23;;;;;;;;;0.00;0.00;;;;;20.95;33.65;100399.56;5097506;27;45723;-57
2021/12/02 10:21:56;;;;;;;;;1.75;1.25;;;;;20.94;33.66;100386.50;5097527;27;45514;-56
2021/12/02 10:24:25;;;;;;;;;0.00;0.00;;;;;20.95;33.78;100399.56;5079376;27;45511;-58
2021/12/02 10:26:55;;;;;;;;;1.25;1.25;;;;;20.94;34.02;100395.22;5097358;27;46993;-56
2021/12/02 10:29:26;;;;;;;;;2.00;2.00;;;;;20.93;33.50;100396.19;5097521;27;45609;-56
2021/12/02 10:32:12;;;;;;;;;1.25;1.00;;;;;20.91;33.95;100400.69;5097542;27;45553;-53
2021/12/02 10:35:06;;;;;;;;;1.00;1.00;;;;;20.90;33.64;100401.63;5097641;27;45449;-52
2021/12/02 10:37:39;;;;;;;;;1.00;0.25;;;;;20.91;33.90;100400.69;5097427;27;45698;-55
2021/12/02 10:40:20;;;;;;;;;2.00;0.75;;;;;20.88;33.68;100398.28;5097546;27;45329;-54
2021/12/02 10:42:47;;;;;;;;;2.00;1.00;;;;;20.88;33.45;100398.28;5078848;27;45288;-56
2021/12/02 10:45:27;;;;;;;;;4.50;1.25;;;;;20.88;33.52;100393.00;5097290;27;45319;-56
2021/12/02 10:47:54;;;;;;;;;0.00;0.00;;;;;20.87;33.34;100395.72;5096904;27;45578;-55
2021/12/02 10:50:22;;;;;;;;;2.25;0.25;;;;;20.87;33.82;100390.44;5097142;27;45748;-57
2021/12/02 10:52:48;;;;;;;;;2.00;0.00;;;;;20.85;33.97;100380.03;5097073;27;45228;-55
2021/12/02 10:55:17;;;;;;;;;0.25;0.25;;;;;20.84;33.78;100389.69;5097145;27;45231;-56
2021/12/02 10:57:55;;;;;;;;;5.25;2.75;;;;;20.84;33.63;100380.97;5096816;27;47162;-55
2021/12/02 11:00:26;;;;;;;;;1.75;1.00;;;;;20.84;33.58;100375.69;5078475;27;45862;-58
2021/12/02 11:02:54;;;;;;;;;2.50;0.00;;;;;20.83;33.40;100381.91;5078804;27;45423;-53
2021/12/02 11:05:31;;;;;;;;;0.75;0.75;;;;;20.83;33.83;100390.66;5097052;27;45564;-50
2021/12/02 11:07:58;;;;;;;;;1.00;0.00;;;;;20.85;33.51;100372.13;5096425;27;46405;-53
2021/12/02 11:10:25;;;;;;;;;2.00;1.00;;;;;20.89;33.25;100372.78;5100418;27;45073;-54
2021/12/02 11:12:53;;;;;;;;;1.50;1.00;;;;;20.92;33.48;100368.13;5100520;27;45466;-53
2021/12/02 11:15:22;;;;;;;;;0.75;0.75;;;;;20.95;33.30;100367.94;5100720;27;45535;-53
2021/12/02 11:17:49;;;;;;;;;0.50;0.50;;;;;20.99;33.48;100358.06;5081730;27;46101;-54
2021/12/02 11:20:17;;;;;;;;;2.00;1.00;;;;;21.03;33.77;100359.56;5100461;27;45277;-57
2021/12/02 11:22:43;;;;;;;;;0.25;0.25;;;;;21.07;33.27;100365.47;5100493;27;45375;-56
2021/12/02 11:25:11;;;;;;;;;3.25;1.25;;;;;21.10;33.61;100355.56;5101045;27;45692;-54
2021/12/02 11:27:46;;;;;;;;;0.00;0.00;;;;;21.14;33.54;100350.94;5100585;27;45795;-54
2021/12/02 11:30:24;;;;;;;;;2.75;1.25;;;;;21.17;33.29;100366.56;5100029;27;45685;-55
2021/12/02 11:33:09;;;;;;;;;1.00;1.00;;;;;21.22;33.37;100368.88;5100374;27;45436;-58
2021/12/02 11:35:36;;;;;;;;;1.75;1.00;;;;;21.25;33.48;100369.53;5100207;27;45609;-60
2021/12/02 11:38:16;;;;;;;;;2.00;1.00;;;;;21.29;33.35;100373.66;5100021;27;46219;-61
2021/12/02 11:40:45;;;;;;;;;1.00;1.00;;;;;21.33;33.32;100360.28;5099990;27;45706;-61
2021/12/02 11:43:21;;;;;;;;;0.00;0.00;;;;;21.35;33.10;100369.78;5100118;27;45533;-57
2021/12/02 11:45:49;;;;;;;;;0.75;0.75;;;;;21.36;32.91;100358.28;5100224;27;45338;-61
2021/12/02 11:48:19;;;;;;;;;2.75;1.00;;;;;21.38;33.15;100363.44;5099757;27;45754;-58
2021/12/02 11:50:45;;;;;;;;;0.00;0.00;;;;;21.41;32.74;100368.53;5082216;27;45358;-55